Date,TemperatureHighF,TemperatureAvgF,TemperatureLowF,DewpointHighF,DewpointAvgF,DewpointLowF,HumidityHigh,HumidityAvg,HumidityLow,PressureMaxIn,PressureMinIn,WindSpeedMaxMPH,WindSpeedAvgMPH,GustSpeedMaxMPH,PrecipitationSumIn
2013-1-1,39,30,24,39,30,24,100,100,100,0.00,40.00,0,0,0,0.00
2013-1-2,41,29,23,41,29,23,100,100,100,0.00,40.00,0,0,0,0.00
2013-1-3,45,31,20,45,31,20,100,100,100,0.00,40.00,0,0,0,0.00
2013-1-4,52,44,36,52,44,36,100,100,100,0.00,40.00,0,0,0,0.00
2013-1-5,45,40,36,45,40,36,100,100,100,0.00,40.00,0,0,0,0.00
2013-1-6,47,41,35,47,41,35,100,100,100,0.00,40.00,0,0,0,0.00
2013-1-7,50,45,41,50,45,41,100,100,100,0.00,40.00,0,0,3,0.00
2013-1-8,53,47,41,53,47,41,100,100,100,0.00,40.00,0,0,9,0.00
2013-1-9,54,39,30,54,39,30,100,100,100,0.00,40.00,0,0,19,0.00
2013-1-10,38,32,27,38,32,27,100,100,100,0.00,40.00,0,0,0,0.00
2013-1-11,35,30,25,35,30,25,100,100,100,0.00,40.00,0,0,0,0.00
2013-1-12,36,26,20,36,26,20,100,100,100,0.00,40.00,0,0,0,0.00
2013-1-13,35,25,18,35,25,18,100,100,100,0.00,40.00,0,0,0,0.00
2013-1-14,37,28,20,37,28,20,100,100,100,0.00,40.00,0,0,0,0.00
2013-1-15,40,29,23,40,29,23,100,100,100,0.00,40.00,0,0,0,0.00
2013-1-16,40,28,20,40,28,20,100,100,100,0.00,40.00,0,0,0,0.00
2013-1-17,46,29,21,46,29,21,100,100,100,0.00,40.00,0,0,0,0.00
2013-1-18,44,29,20,44,29,20,100,100,100,0.00,40.00,0,0,0,0.00
2013-1-19,34,29,25,34,29,25,100,100,100,0.00,40.00,0,0,0,0.00
2013-1-20,34,29,25,34,29,25,100,100,100,0.00,40.00,0,0,0,0.00
2013-1-21,34,28,23,34,28,23,100,100,100,0.00,40.00,0,0,0,0.00
2013-1-22,37,29,20,37,29,20,100,100,100,0.00,40.00,0,0,0,0.00
2013-1-23,42,37,32,42,37,32,100,100,100,0.00,40.00,0,0,0,0.00
2013-1-24,46,38,29,46,38,29,100,100,100,0.00,40.00,0,0,0,0.00
2013-1-25,51,44,30,51,44,30,100,100,100,0.00,40.00,0,0,0,0.00
2013-1-26,46,39,29,46,39,29,100,100,100,0.00,40.00,0,0,0,0.00
2013-1-27,42,38,37,42,38,37,100,100,100,0.00,40.00,0,0,0,0.00
2013-1-28,41,40,37,41,40,37,100,100,100,0.00,40.00,0,0,0,0.00
2013-1-29,46,44,41,46,44,41,100,100,100,0.00,40.00,0,0,0,0.00
2013-1-30,48,45,43,48,45,43,100,100,100,0.00,40.00,0,0,0,0.00
2013-1-31,49,46,41,49,46,41,100,100,100,0.00,40.00,0,0,0,0.06
2013-2-1,51,43,36,51,43,36,100,100,100,0.00,40.00,0,0,0,0.06
2013-2-2,42,38,30,42,38,30,100,100,100,0.00,40.00,0,0,0,0.00
2013-2-3,45,37,28,45,37,28,100,100,100,0.00,40.00,0,0,0,0.00
2013-2-4,51,43,36,51,43,36,100,100,100,0.00,40.00,0,0,0,0.00
2013-2-5,50,43,35,50,43,35,100,100,100,0.00,40.00,0,0,0,0.00
2013-2-6,48,44,41,48,44,41,100,100,100,0.00,40.00,0,0,2,0.00
2013-2-7,50,40,29,50,40,29,100,100,100,0.00,40.00,0,0,0,0.00
2013-2-8,44,34,26,44,34,26,100,100,100,0.00,40.00,0,0,0,0.00
2013-2-9,45,38,32,45,38,32,100,100,100,0.00,40.00,0,0,0,0.00
2013-2-10,45,40,38,45,40,38,100,100,100,0.00,40.00,0,0,0,0.00
2013-2-11,48,41,34,48,41,34,100,100,100,0.00,40.00,0,0,0,0.00
2013-2-12,51,46,41,51,46,41,100,100,100,0.00,40.00,0,0,0,0.00
2013-2-13,49,45,41,49,45,41,100,100,100,0.00,40.00,0,0,0,0.00
2013-2-14,51,44,37,51,44,37,100,100,100,0.00,40.00,0,0,0,0.00
2013-2-15,53,44,34,53,44,34,100,100,100,0.00,40.00,0,0,0,0.00
2013-2-16,50,41,31,50,41,31,100,100,100,0.00,40.00,0,0,0,0.00
2013-2-17,46,40,32,46,40,32,100,100,100,0.00,40.00,0,0,0,0.00
2013-2-18,46,40,33,46,40,33,100,100,100,0.00,40.00,0,0,0,0.00
2013-2-19,49,38,29,49,38,29,100,100,100,0.00,40.00,0,0,0,0.00
2013-2-20,46,36,26,46,36,26,100,100,100,0.00,40.00,0,0,0,0.00
2013-2-21,43,40,34,43,40,34,100,100,100,0.00,40.00,0,0,0,0.00
2013-2-22,44,41,35,44,41,35,100,100,100,0.00,40.00,0,0,6,0.00
2013-2-23,46,40,36,46,40,36,100,100,100,0.00,40.00,0,0,0,0.00
2013-2-24,48,43,36,48,43,36,100,100,100,0.00,40.00,5,0,6,0.00
2013-2-25,47,41,34,47,41,34,100,100,100,0.00,40.00,0,0,6,0.00
2013-2-26,47,41,34,47,41,34,100,100,100,0.00,40.00,0,0,3,0.00
2013-2-27,53,45,40,53,45,40,100,100,100,0.00,40.00,0,0,0,0.00
2013-2-28,52,47,42,52,47,42,100,100,100,0.00,40.00,0,0,0,0.00
2013-3-1,59,53,50,59,53,50,100,100,100,0.00,40.00,0,0,0,0.00
2013-3-2,56,48,38,56,48,38,100,100,100,0.00,40.00,0,0,0,0.00
2013-3-3,50,39,32,50,39,31,100,100,100,0.00,40.00,0,0,0,0.00
2013-3-4,52,35,26,52,35,26,100,100,100,0.00,40.00,0,0,0,0.00
2013-3-5,47,38,29,47,38,29,100,100,100,0.00,40.00,0,0,0,0.00
2013-3-6,44,40,36,44,40,36,100,100,100,0.00,40.00,0,0,0,0.00
2013-3-7,54,42,32,54,42,32,100,100,100,0.00,40.00,0,0,0,0.00
2013-3-8,52,38,29,52,38,29,100,100,100,0.00,40.00,0,0,0,0.00
2013-3-9,56,38,27,56,38,27,100,100,100,0.00,40.00,0,0,0,0.00
2013-3-10,44,39,30,44,39,30,100,100,100,0.00,40.00,0,0,0,0.00
2013-3-11,51,46,42,51,46,42,100,100,100,0.00,40.00,0,0,0,0.00
2013-3-12,53,50,48,53,50,48,100,100,100,0.00,40.00,4,0,4,0.00
2013-3-13,53,50,48,53,50,48,100,100,100,0.00,40.00,0,0,0,0.00
2013-3-14,57,51,48,57,51,48,100,100,100,0.00,40.00,0,0,0,0.00
2013-3-15,60,52,47,60,52,47,100,100,100,0.00,40.00,0,0,0,0.00
2013-3-16,50,45,37,50,45,37,100,100,100,0.00,40.00,0,0,0,0.00
2013-3-17,48,40,36,48,40,36,100,100,100,0.00,40.00,0,0,0,0.00
2013-3-18,52,41,32,52,41,31,100,100,100,0.00,40.00,0,0,0,0.00
2013-3-19,54,40,29,54,40,29,100,100,100,0.00,40.00,0,0,9,0.00
2013-3-20,51,45,37,51,45,37,100,100,100,0.00,40.00,0,0,6,0.00
2013-3-21,44,38,35,44,38,35,100,100,100,0.00,40.00,0,0,0,0.00
2013-3-22,48,36,28,48,36,28,100,100,100,0.00,40.00,0,0,0,0.00
2013-3-23,50,36,29,50,36,29,100,100,100,0.00,40.00,0,0,0,0.00
2013-3-24,53,38,28,53,38,28,100,100,100,0.00,40.00,0,0,0,0.00
2013-3-25,60,43,29,60,43,29,100,100,100,0.00,40.00,0,0,0,0.00
2013-3-26,61,49,43,61,49,43,100,100,100,0.00,40.00,0,0,0,0.00
2013-3-27,59,49,43,59,49,43,100,100,100,0.00,40.00,0,0,0,0.00
2013-3-28,62,50,42,62,50,42,100,100,100,0.00,40.00,0,0,0,0.00
2013-3-29,65,50,43,65,50,41,100,100,100,0.00,40.00,0,0,0,0.00
2013-3-30,66,48,33,66,46,-100,100,100,100,0.00,40.00,0,0,0,0.00
2013-3-31,70,49,34,70,49,34,100,100,100,0.00,40.00,0,0,0,0.00
2013-4-1,64,49,38,64,49,38,100,100,100,0.00,40.00,0,0,0,0.00
2013-4-2,57,51,48,57,51,48,100,100,100,0.00,40.00,0,0,0,0.00
2013-4-3,65,53,41,65,53,41,100,100,100,0.00,40.00,0,0,0,0.00
2013-4-4,58,52,47,58,52,47,100,100,100,0.00,40.00,0,0,5,0.00
2013-4-5,57,52,47,57,52,47,100,100,100,0.00,40.00,0,0,0,0.00
2013-4-6,52,48,42,52,48,42,100,100,100,0.00,40.00,0,0,0,0.00
2013-4-7,49,44,40,49,44,40,100,100,100,0.00,40.00,0,0,0,0.00
2013-4-8,54,45,39,54,45,38,100,100,100,0.00,40.00,0,0,0,0.00
2013-4-9,57,45,35,57,45,35,100,100,100,0.00,40.00,0,0,0,0.00
2013-4-10,56,52,46,56,52,46,100,100,100,0.00,40.00,0,0,8,0.00
2013-4-11,56,47,38,56,47,38,100,100,100,0.00,40.00,0,0,0,0.00
2013-4-12,51,41,35,51,41,35,100,100,100,0.00,40.00,0,0,0,0.00
2013-4-13,45,41,36,45,41,36,100,100,100,0.00,40.00,0,0,0,0.00
2013-4-14,50,42,39,50,42,39,100,100,100,0.00,40.00,0,0,0,0.00
2013-4-15,55,43,37,55,43,37,100,100,100,0.00,40.00,0,0,0,0.00
2013-4-16,56,44,36,56,44,36,100,100,100,0.00,40.00,0,0,0,0.18
2013-4-17,62,45,33,62,45,33,100,100,100,0.00,40.00,0,0,0,0.54
2013-4-18,56,47,40,56,47,40,100,100,100,0.00,40.00,0,0,0,0.00
2013-4-19,54,50,47,54,50,47,100,100,100,0.00,40.00,0,0,0,0.00
2013-4-20,57,49,46,57,49,46,100,100,100,0.00,40.00,0,0,0,0.00
2013-4-21,55,47,39,55,47,39,100,100,100,0.00,40.00,0,0,0,0.00
2013-4-22,61,45,35,61,45,35,100,100,100,0.00,40.00,0,0,0,0.00
2013-4-23,63,45,31,63,45,31,100,100,100,0.00,40.00,0,0,0,0.00
2013-4-24,69,49,31,69,49,31,100,100,100,0.00,40.00,0,0,1,0.00
2013-4-25,71,53,36,71,53,36,100,100,100,0.00,40.00,0,0,0,0.00
2013-4-26,72,53,37,72,53,37,100,100,100,0.00,40.00,0,0,0,0.00
2013-4-27,62,52,45,62,49,-100,100,98,100,0.00,40.00,0,0,0,0.00
2013-4-28,61,52,47,61,52,47,100,100,100,0.00,40.00,0,0,0,0.00
2013-4-29,56,49,40,56,49,40,100,100,100,0.00,40.00,0,0,0,0.00
2013-4-30,59,44,33,59,44,33,100,100,100,0.00,40.00,0,0,0,0.00
2013-5-1,64,46,29,64,46,29,100,100,100,0.00,40.00,0,0,0,0.00
2013-5-2,72,52,34,72,52,34,100,100,100,0.00,40.00,0,0,0,0.00
2013-5-3,71,52,36,71,52,36,100,100,100,0.00,40.00,0,0,0,0.00
2013-5-4,77,57,39,77,57,39,100,100,100,0.00,40.00,0,0,0,0.00
2013-5-5,83,60,40,83,60,40,100,100,100,0.00,40.00,0,0,3,0.00
2013-5-6,86,62,42,86,62,42,100,100,100,0.00,40.00,0,0,0,0.00
2013-5-7,72,56,46,72,56,46,100,100,100,0.00,40.00,0,0,0,0.00
2013-5-8,67,55,46,67,55,46,100,100,100,0.00,40.00,0,0,0,0.00
2013-5-9,73,54,43,73,54,43,100,100,100,0.00,40.00,0,0,0,0.00
2013-5-10,83,59,42,83,57,-100,100,100,100,0.00,40.00,0,0,3,0.00
2013-5-11,83,64,51,83,63,-100,100,100,100,0.00,40.00,0,0,0,0.00
2013-5-12,81,63,58,81,63,58,100,100,100,0.00,40.00,4,0,4,0.00
2013-5-13,68,56,42,68,56,42,100,100,100,0.00,40.00,0,0,3,0.00
2013-5-14,66,51,39,66,51,39,100,100,100,0.00,40.00,0,0,0,0.04
2013-5-15,67,51,39,67,51,39,100,100,100,0.00,40.00,0,0,0,0.00
2013-5-16,70,55,50,69,39,-100,100,99,100,0.00,40.00,0,0,0,0.00
2013-5-17,60,54,51,60,51,-100,100,100,100,0.00,40.00,0,0,0,0.00
2013-5-18,60,54,49,60,54,49,100,100,100,0.00,40.00,0,0,0,0.00
2013-5-19,59,54,48,59,54,48,100,100,100,0.00,40.00,0,0,0,0.00
2013-5-20,67,55,48,67,55,48,100,100,100,0.00,40.00,0,0,0,0.00
2013-5-21,56,50,45,56,50,45,100,100,100,0.00,40.00,0,0,0,0.00
2013-5-22,50,45,39,50,45,39,100,100,100,0.00,40.00,0,0,0,0.00
2013-5-23,54,47,40,54,47,40,100,100,100,0.00,40.00,0,0,0,0.00
2013-5-24,61,52,45,61,52,45,100,100,100,0.00,40.00,0,0,0,0.00
2013-5-25,62,53,47,62,53,47,100,100,100,0.00,40.00,0,0,0,0.00
2013-5-26,66,54,48,66,54,48,100,100,100,0.00,40.00,0,0,0,0.00
2013-5-27,63,54,46,63,54,46,100,100,100,0.00,40.00,0,0,8,0.00
2013-5-28,63,55,50,63,55,50,100,100,100,0.00,40.00,0,0,4,0.00
2013-5-29,59,53,50,59,53,50,100,100,100,0.00,40.00,0,0,0,0.00
2013-5-30,63,52,47,63,52,47,100,100,100,0.00,40.00,0,0,0,0.00
2013-5-31,65,54,47,65,54,47,100,100,100,0.00,40.00,0,0,0,0.00
2013-6-1,76,58,46,76,58,46,100,100,100,0.00,40.00,0,0,0,0.00
2013-6-2,69,57,47,69,57,47,100,100,100,0.00,40.00,0,0,0,0.00
2013-6-3,71,57,43,71,57,43,100,100,100,0.00,40.00,0,0,0,0.00
2013-6-4,80,60,43,80,58,-100,100,98,100,0.00,40.00,0,0,0,0.00
2013-6-5,79,64,47,79,64,47,100,100,100,0.00,40.00,0,0,0,0.00
2013-6-6,80,65,48,80,65,48,100,100,100,0.00,40.00,0,0,4,0.00
2013-6-7,72,59,48,71,59,48,100,100,100,0.00,40.00,0,0,0,0.00
2013-6-8,74,60,48,74,60,48,100,100,100,0.00,40.00,0,0,0,0.00
2013-6-9,68,59,50,68,59,50,100,100,100,0.00,40.00,0,0,0,0.00
2013-6-10,68,56,43,68,56,43,100,100,100,0.00,40.00,0,0,0,0.00
2013-6-11,68,55,49,68,55,49,100,100,100,0.00,40.00,0,0,0,0.00
2013-6-12,63,52,50,63,52,50,100,100,100,0.00,40.00,0,0,0,0.00
2013-6-13,65,53,48,65,53,48,100,100,100,0.00,40.00,0,0,0,0.00
2013-6-14,66,54,48,66,54,48,100,100,100,0.00,40.00,0,0,0,0.00
2013-6-15,76,50,40,76,50,40,100,100,100,0.00,40.00,0,0,0,0.00
2013-6-16,73,54,47,73,54,47,100,100,100,0.00,40.00,0,0,0,0.00
2013-6-17,74,58,55,74,58,55,100,100,100,0.00,40.00,0,0,0,0.00
2013-6-18,72,56,50,72,56,49,100,100,100,0.00,40.00,0,0,0,0.00
2013-6-19,65,52,46,65,52,46,100,100,100,0.00,40.00,0,0,0,0.00
2013-6-20,59,53,51,59,53,51,100,100,100,0.00,40.00,0,0,0,0.00
2013-6-22,62,58,47,62,58,47,100,100,100,0.00,40.00,0,0,0,0.00
2013-6-23,67,62,58,67,62,58,100,100,100,0.00,40.00,0,0,0,0.16
2013-6-24,62,58,57,62,58,56,100,100,100,0.00,40.00,0,0,0,0.16
2013-6-25,65,58,55,65,58,55,100,100,100,0.00,40.00,0,0,0,0.00
2013-6-26,65,59,56,65,59,56,100,100,100,0.00,40.00,0,0,0,0.00
2013-6-27,69,63,58,69,63,58,100,100,100,0.00,40.00,0,0,0,0.00
2013-6-28,69,62,58,69,62,58,100,100,100,0.00,40.00,0,0,0,0.00
2013-6-29,68,63,60,68,63,60,100,100,100,0.00,40.00,0,0,0,0.02
2013-6-30,71,61,56,71,61,56,100,100,100,0.00,40.00,0,0,0,0.00
2013-7-1,69,64,60,69,64,60,100,100,100,0.00,40.00,0,0,0,0.00
2013-7-2,66,61,57,66,61,57,100,100,100,0.00,40.00,0,0,0,0.00
2013-7-3,61,55,51,61,55,51,100,100,100,0.00,40.00,0,0,0,0.00
2013-7-4,59,52,48,59,52,48,100,100,100,0.00,40.00,0,0,0,0.00
2013-7-5,60,56,53,60,56,53,100,100,100,0.00,40.00,0,0,0,0.00
2013-7-6,62,54,48,62,54,48,100,100,100,0.00,40.00,0,0,0,0.00
2013-7-7,64,55,49,64,55,49,100,100,100,0.00,40.00,0,0,0,0.00
2013-7-8,64,54,49,64,54,49,100,100,100,0.00,40.00,0,0,0,0.00
2013-7-9,64,54,49,64,52,-100,100,98,100,0.00,40.00,0,0,0,0.00
2013-7-10,71,54,50,60,43,-100,100,93,100,0.00,40.00,0,0,0,0.00
2013-7-11,57,48,43,57,48,43,100,100,100,0.00,40.00,0,0,0,0.00
2013-7-12,57,49,43,57,49,43,100,100,100,0.00,40.00,0,-14,0,0.00
2013-7-13,53,46,41,53,46,41,100,100,100,0.00,40.00,0,0,0,0.00
2013-7-14,53,46,43,53,46,43,100,100,100,0.00,40.00,0,0,0,0.00
2013-7-15,57,49,44,57,49,44,100,100,100,0.00,40.00,0,0,0,0.02
2013-7-16,65,52,48,65,52,48,100,100,100,0.00,40.00,0,0,0,0.00
2013-7-17,65,60,54,65,60,53,100,100,100,0.00,40.00,0,0,0,0.00
2013-7-18,64,55,49,64,55,49,100,100,100,0.00,40.00,0,0,0,0.00
2013-7-19,66,56,47,66,56,47,100,100,100,0.00,40.00,0,0,0,0.00
2013-7-20,66,56,52,66,55,-100,100,99,100,0.00,40.00,0,0,0,0.00
2013-7-21,65,56,51,65,56,51,100,100,100,0.00,40.00,0,0,0,0.00
2013-7-22,65,57,55,65,57,55,100,100,100,0.00,40.00,0,0,0,0.00
2013-7-23,62,53,48,62,53,48,100,100,100,0.00,40.00,0,0,0,0.00
2013-7-24,62,54,49,62,54,49,100,100,100,0.00,40.00,0,0,0,0.00
2013-7-25,61,53,47,61,53,47,100,100,100,0.00,40.00,0,0,0,0.00
2013-7-26,57,51,47,57,51,47,100,100,100,0.00,40.00,0,0,0,0.00
2013-7-27,59,50,44,59,50,44,100,100,100,0.00,40.00,0,0,0,0.00
2013-7-28,58,51,45,58,51,45,100,100,100,0.00,40.00,0,0,0,0.00
2013-7-29,61,57,55,61,57,55,100,100,100,0.00,40.00,0,0,0,0.00
2013-7-30,65,55,48,65,55,48,100,100,100,0.00,40.00,0,0,0,0.00
2013-7-31,66,58,52,66,58,52,100,100,100,0.00,40.00,0,0,0,0.00
2013-8-1,62,58,54,62,58,54,100,100,100,0.00,40.00,0,0,0,0.02
2013-8-2,63,58,54,63,58,54,100,100,100,0.00,40.00,0,0,0,0.04
2013-8-3,66,61,58,66,61,58,100,100,100,0.00,40.00,0,0,0,0.00
2013-8-4,66,60,54,66,60,54,100,100,100,0.00,40.00,0,0,0,0.00
2013-8-5,65,56,51,65,56,51,100,100,100,0.00,40.00,0,0,0,0.02
2013-8-6,60,55,49,60,55,49,100,100,100,0.00,40.00,0,0,0,0.02
2013-8-7,63,53,49,63,53,49,100,100,100,0.00,40.00,0,0,0,0.00
2013-8-8,64,58,52,64,58,52,100,100,100,0.00,40.00,0,0,0,0.00
2013-8-9,65,56,51,65,56,51,100,100,100,0.00,40.00,0,0,0,0.00
2013-8-10,67,63,60,67,63,60,100,100,100,0.00,40.00,0,0,0,0.06
2013-8-11,64,60,58,64,60,58,100,100,100,0.00,40.00,0,0,0,0.00
2013-8-21,61,50,44,61,50,44,100,100,100,0.00,40.00,0,0,0,0.00
2013-8-22,64,55,49,64,55,49,100,100,100,0.00,40.00,0,0,0,0.00
2013-8-23,63,61,57,63,61,57,100,100,100,0.00,40.00,0,0,0,0.00
2013-8-24,64,58,58,64,54,-100,100,96,100,0.00,40.00,0,0,0,0.00
2013-8-25,64,56,47,64,56,47,100,100,100,0.00,40.00,0,0,0,0.00
2013-8-26,64,60,57,64,60,57,100,100,100,0.00,40.00,0,0,0,0.18
2013-8-27,63,59,58,63,59,58,100,100,100,0.00,40.00,0,0,0,0.06
2013-9-24,57,49,44,57,49,44,100,100,100,0.00,40.00,0,0,0,0.00
2013-9-25,53,50,43,53,50,43,100,100,100,0.00,40.00,0,0,0,0.00
2013-9-26,56,43,37,56,43,37,100,100,100,0.00,40.00,0,0,0,0.00
2013-9-27,57,51,42,57,51,42,100,100,100,0.00,40.00,0,0,0,0.00
2013-9-28,61,54,51,61,52,-100,100,98,100,0.00,40.00,0,0,3,0.00
2013-9-29,56,52,50,56,52,50,100,100,100,0.00,40.00,8,0,14,0.00
2013-9-30,56,51,48,56,51,48,100,100,100,0.00,40.00,0,0,6,0.00
2013-10-18,55,43,33,55,43,33,100,100,100,0.00,40.00,0,0,0,0.00
2013-10-19,50,41,33,50,39,-100,100,98,100,0.00,40.00,0,0,0,0.00
2013-10-20,48,45,42,48,45,42,100,100,100,0.00,40.00,0,0,0,0.00
2013-10-21,52,45,41,52,45,41,100,100,100,0.00,40.00,0,0,0,0.00
2013-10-22,56,46,38,56,46,38,100,100,100,0.00,40.00,0,0,0,0.00
2013-10-23,56,44,38,56,44,38,100,100,100,0.00,40.00,0,0,0,0.00
2013-10-24,56,44,35,56,44,35,100,100,100,0.00,40.00,0,0,0,0.00
2013-11-11,50,44,39,50,44,39,100,100,100,0.00,40.00,0,0,0,0.00
2013-11-12,58,50,40,58,50,40,100,100,100,0.00,40.00,0,0,0,0.00
2013-11-13,55,47,42,55,47,42,100,100,100,0.00,40.00,0,0,0,0.00
2013-11-14,50,45,41,50,45,41,100,100,100,0.00,40.00,0,0,0,0.00
2013-11-15,46,43,38,46,43,38,100,100,100,0.00,40.00,0,0,0,0.00
2013-11-16,44,41,40,44,39,-100,100,98,100,0.00,40.00,0,0,0,0.00
2013-11-17,49,45,40,49,45,40,100,100,100,0.00,40.00,0,0,0,0.00
2013-11-18,54,49,46,53,49,46,100,100,100,0.00,40.00,0,0,4,0.00